Time,TemperatureF,DewpointF,PressureIn,WindDirection,WindDirectionDegrees,WindSpeedMPH,WindSpeedGustMPH,Humidity,HourlyPrecipIn,Conditions,Clouds,dailyrainin,SoftwareType,DateUTC
2013-01-20 00:03:00,12.0,-99.9,-100.00,NW,312,26.0,29.0,-999,-99.99,,,-99.99,,2013-01-20 06:03:00,
2013-01-20 00:12:00,12.0,-99.9,-100.00,NW,304,26.0,36.0,-999,-99.99,,,-99.99,,2013-01-20 06:12:00,
2013-01-20 00:22:00,12.0,-99.9,-100.00,NW,304,26.0,36.0,-999,-99.99,,,-99.99,,2013-01-20 06:22:00,
2013-01-20 00:34:00,12.0,-99.9,-100.00,NW,304,26.0,36.0,-999,-99.99,,,-99.99,,2013-01-20 06:34:00,
2013-01-20 00:43:00,12.0,-99.9,-100.00,NW,309,27.0,33.0,-999,-99.99,,,-99.99,,2013-01-20 06:43:00,
2013-01-20 00:53:00,12.0,-99.9,-100.00,NW,309,27.0,33.0,-999,-99.99,,,-99.99,,2013-01-20 06:53:00,
2013-01-20 01:02:00,12.0,-99.9,-100.00,NW,309,27.0,33.0,-999,-99.99,,,-99.99,,2013-01-20 07:02:00,
2013-01-20 01:12:00,11.0,-99.9,-100.00,NW,317,27.0,33.0,-999,-99.99,,,-99.99,,2013-01-20 07:12:00,
2013-01-20 01:22:00,11.0,-99.9,-100.00,NW,311,25.0,0.0,-999,-99.99,,,-99.99,,2013-01-20 07:22:00,
2013-01-20 01:32:00,10.0,-99.9,-100.00,NW,312,20.0,30.0,-999,-99.99,,,-99.99,,2013-01-20 07:32:00,
2013-01-20 01:43:00,10.0,-99.9,-100.00,NW,312,20.0,30.0,-999,-99.99,,,-99.99,,2013-01-20 07:43:00,
2013-01-20 01:53:00,10.0,-99.9,-100.00,NW,312,20.0,30.0,-999,-99.99,,,-99.99,,2013-01-20 07:53:00,
2013-01-20 02:02:00,10.0,-99.9,-100.00,NW,312,20.0,30.0,-999,-99.99,,,-99.99,,2013-01-20 08:02:00,
2013-01-20 02:12:00,10.0,-99.9,-100.00,NW,321,27.0,35.0,-999,-99.99,,,-99.99,,2013-01-20 08:12:00,
2013-01-20 02:22:00,10.0,-99.9,-100.00,NW,314,30.0,0.0,-999,-99.99,,,-99.99,,2013-01-20 08:22:00,
2013-01-20 02:32:00,10.0,-99.9,-100.00,NW,314,30.0,0.0,-999,-99.99,,,-99.99,,2013-01-20 08:32:00,
2013-01-20 02:42:00,10.0,-99.9,-100.00,NW,314,30.0,0.0,-999,-99.99,,,-99.99,,2013-01-20 08:42:00,
2013-01-20 02:53:00,10.0,-99.9,-100.00,NW,314,30.0,0.0,-999,-99.99,,,-99.99,,2013-01-20 08:53:00,
2013-01-20 03:02:00,10.0,-99.9,-100.00,NW,314,30.0,0.0,-999,-99.99,,,-99.99,,2013-01-20 09:02:00,
2013-01-20 03:12:00,9.0,-99.9,-100.00,NW,323,20.0,30.0,-999,-99.99,,,-99.99,,2013-01-20 09:12:00,
2013-01-20 03:22:00,9.0,-99.9,-100.00,NW,323,20.0,30.0,-999,-99.99,,,-99.99,,2013-01-20 09:22:00,
2013-01-20 03:33:00,9.0,-99.9,-100.00,NW,311,20.0,0.0,-999,-99.99,,,-99.99,,2013-01-20 09:33:00,
2013-01-20 03:43:00,9.0,-99.9,-100.00,NW,311,20.0,0.0,-999,-99.99,,,-99.99,,2013-01-20 09:43:00,
2013-01-20 03:53:00,9.0,-99.9,-100.00,NW,311,20.0,0.0,-999,-99.99,,,-99.99,,2013-01-20 09:53:00,
2013-01-20 04:03:00,9.0,-99.9,-100.00,NW,311,20.0,0.0,-999,-99.99,,,-99.99,,2013-01-20 10:03:00,
2013-01-20 04:12:00,8.0,-99.9,-100.00,WNW,283,14.0,25.0,-999,-99.99,,,-99.99,,2013-01-20 10:12:00,
2013-01-20 04:23:00,8.0,-99.9,-100.00,WNW,283,14.0,25.0,-999,-99.99,,,-99.99,,2013-01-20 10:23:00,
2013-01-20 04:33:00,7.0,-99.9,-100.00,WNW,288,12.0,25.0,-999,-99.99,,,-99.99,,2013-01-20 10:33:00,
2013-01-20 04:40:00,4.0,-99.9,-100.00,WSW,248,10.0,16.0,-999,-99.99,,,-99.99,,2013-01-20 10:40:00,
2013-01-20 04:43:00,7.0,-99.9,-100.00,WNW,288,12.0,25.0,-999,-99.99,,,-99.99,,2013-01-20 10:43:00,
2013-01-20 04:53:00,7.0,-99.9,-100.00,WNW,288,12.0,25.0,-999,-99.99,,,-99.99,,2013-01-20 10:53:00,
2013-01-20 05:03:00,7.0,-99.9,-100.00,WNW,288,12.0,25.0,-999,-99.99,,,-99.99,,2013-01-20 11:03:00,
2013-01-20 05:12:00,4.0,-99.9,-100.00,WSW,248,10.0,16.0,-999,-99.99,,,-99.99,,2013-01-20 11:12:00,
2013-01-20 05:23:00,4.0,-99.9,-100.00,WSW,248,10.0,16.0,-999,-99.99,,,-99.99,,2013-01-20 11:23:00,
2013-01-20 05:33:00,4.0,-99.9,-100.00,WSW,248,10.0,16.0,-999,-99.99,,,-99.99,,2013-01-20 11:33:00,
2013-01-20 05:40:00,2.0,-99.9,-100.00,WSW,244,10.0,18.0,-999,-99.99,,,-99.99,,2013-01-20 11:40:00,
2013-01-20 06:13:00,2.0,-99.9,-100.00,WSW,244,10.0,18.0,-999,-99.99,,,-99.99,,2013-01-20 12:13:00,
2013-01-20 06:23:00,2.0,-99.9,-100.00,WSW,244,10.0,18.0,-999,-99.99,,,-99.99,,2013-01-20 12:23:00,
2013-01-20 06:34:00,2.0,-99.9,-100.00,WSW,244,10.0,18.0,-999,-99.99,,,-99.99,,2013-01-20 12:34:00,
2013-01-20 06:40:00,1.0,-99.9,-100.00,WSW,250,7.0,17.0,-999,-99.99,,,-99.99,,2013-01-20 12:40:00,
2013-01-20 07:12:00,1.0,-99.9,-100.00,WSW,250,7.0,17.0,-999,-99.99,,,-99.99,,2013-01-20 13:12:00,
2013-01-20 07:23:00,1.0,-99.9,-100.00,WSW,250,7.0,17.0,-999,-99.99,,,-99.99,,2013-01-20 13:23:00,
2013-01-20 07:34:00,1.0,-99.9,-100.00,WSW,250,7.0,17.0,-999,-99.99,,,-99.99,,2013-01-20 13:34:00,
2013-01-20 08:40:00,1.0,-99.9,-100.00,WSW,239,8.0,12.0,-999,-99.99,,,-99.99,,2013-01-20 14:40:00,
2013-01-20 09:13:00,1.0,-99.9,-100.00,WSW,239,8.0,12.0,-999,-99.99,,,-99.99,,2013-01-20 15:13:00,
2013-01-20 09:23:00,1.0,-99.9,-100.00,WSW,239,8.0,12.0,-999,-99.99,,,-99.99,,2013-01-20 15:23:00,
2013-01-20 09:33:00,1.0,-99.9,-100.00,WSW,239,8.0,12.0,-999,-99.99,,,-99.99,,2013-01-20 15:33:00,
2013-01-20 09:40:00,2.0,-99.9,-100.00,SSW,213,8.0,12.0,-999,-99.99,,,-99.99,,2013-01-20 15:40:00,
2013-01-20 10:12:00,2.0,-99.9,-100.00,SSW,213,8.0,12.0,-999,-99.99,,,-99.99,,2013-01-20 16:12:00,
2013-01-20 10:23:00,2.0,-99.9,-100.00,SSW,213,8.0,12.0,-999,-99.99,,,-99.99,,2013-01-20 16:23:00,
2013-01-20 10:33:00,2.0,-99.9,-100.00,SSW,213,8.0,12.0,-999,-99.99,,,-99.99,,2013-01-20 16:33:00,
2013-01-20 10:40:00,5.0,-99.9,-100.00,WSW,252,12.0,19.0,-999,-99.99,,,-99.99,,2013-01-20 16:40:00,
2013-01-20 11:13:00,5.0,-99.9,-100.00,WSW,252,12.0,19.0,-999,-99.99,,,-99.99,,2013-01-20 17:13:00,
2013-01-20 11:23:00,5.0,-99.9,-100.00,WSW,252,12.0,19.0,-999,-99.99,,,-99.99,,2013-01-20 17:23:00,
2013-01-20 11:33:00,5.0,-99.9,-100.00,WSW,252,12.0,19.0,-999,-99.99,,,-99.99,,2013-01-20 17:33:00,
2013-01-20 11:40:00,6.0,-99.9,-100.00,WSW,240,10.0,14.0,-999,-99.99,,,-99.99,,2013-01-20 17:40:00,
2013-01-20 12:13:00,6.0,-99.9,-100.00,WSW,240,10.0,14.0,-999,-99.99,,,-99.99,,2013-01-20 18:13:00,
2013-01-20 12:24:00,6.0,-99.9,-100.00,WSW,240,10.0,14.0,-999,-99.99,,,-99.99,,2013-01-20 18:24:00,
2013-01-20 12:33:00,6.0,-99.9,-100.00,WSW,240,10.0,14.0,-999,-99.99,,,-99.99,,2013-01-20 18:33:00,
2013-01-20 12:40:00,7.0,-99.9,-100.00,WSW,238,6.0,14.0,-999,-99.99,,,-99.99,,2013-01-20 18:40:00,
2013-01-20 13:13:00,7.0,-99.9,-100.00,WSW,238,6.0,14.0,-999,-99.99,,,-99.99,,2013-01-20 19:13:00,
2013-01-20 13:23:00,7.0,-99.9,-100.00,WSW,238,6.0,14.0,-999,-99.99,,,-99.99,,2013-01-20 19:23:00,
2013-01-20 13:33:00,7.0,-99.9,-100.00,WSW,238,6.0,14.0,-999,-99.99,,,-99.99,,2013-01-20 19:33:00,
2013-01-20 13:40:00,6.0,-99.9,-100.00,WSW,254,10.0,16.0,-999,-99.99,,,-99.99,,2013-01-20 19:40:00,
2013-01-20 14:12:00,6.0,-99.9,-100.00,WSW,254,10.0,16.0,-999,-99.99,,,-99.99,,2013-01-20 20:12:00,
2013-01-20 14:23:00,6.0,-99.9,-100.00,WSW,254,10.0,16.0,-999,-99.99,,,-99.99,,2013-01-20 20:23:00,
2013-01-20 14:33:00,6.0,-99.9,-100.00,WSW,254,10.0,16.0,-999,-99.99,,,-99.99,,2013-01-20 20:33:00,
2013-01-20 14:40:00,6.0,-99.9,-100.00,WNW,282,8.0,14.0,-999,-99.99,,,-99.99,,2013-01-20 20:40:00,
2013-01-20 15:13:00,6.0,-99.9,-100.00,WNW,282,8.0,14.0,-999,-99.99,,,-99.99,,2013-01-20 21:13:00,
2013-01-20 15:23:00,6.0,-99.9,-100.00,WNW,282,8.0,14.0,-999,-99.99,,,-99.99,,2013-01-20 21:23:00,
2013-01-20 15:34:00,6.0,-99.9,-100.00,WNW,282,8.0,14.0,-999,-99.99,,,-99.99,,2013-01-20 21:34:00,
2013-01-20 15:40:00,6.0,-99.9,-100.00,WSW,242,9.0,14.0,-999,-99.99,,,-99.99,,2013-01-20 21:40:00,
2013-01-20 16:13:00,6.0,-99.9,-100.00,WSW,242,9.0,14.0,-999,-99.99,,,-99.99,,2013-01-20 22:13:00,
2013-01-20 16:23:00,6.0,-99.9,-100.00,WSW,242,9.0,14.0,-999,-99.99,,,-99.99,,2013-01-20 22:23:00,
2013-01-20 16:34:00,6.0,-99.9,-100.00,WSW,242,9.0,14.0,-999,-99.99,,,-99.99,,2013-01-20 22:34:00,
2013-01-20 16:40:00,3.0,-99.9,-100.00,SW,216,7.0,10.0,-999,-99.99,,,-99.99,,2013-01-20 22:40:00,
2013-01-20 17:13:00,3.0,-99.9,-100.00,SW,216,7.0,10.0,-999,-99.99,,,-99.99,,2013-01-20 23:13:00,
2013-01-20 17:23:00,3.0,-99.9,-100.00,SW,216,7.0,10.0,-999,-99.99,,,-99.99,,2013-01-20 23:23:00,
2013-01-20 17:33:00,3.0,-99.9,-100.00,SW,216,7.0,10.0,-999,-99.99,,,-99.99,,2013-01-20 23:33:00,
2013-01-20 17:40:00,2.0,-99.9,-100.00,SSW,210,8.0,11.0,-999,-99.99,,,-99.99,,2013-01-20 23:40:00,
2013-01-20 18:13:00,2.0,-99.9,-100.00,SSW,210,8.0,11.0,-999,-99.99,,,-99.99,,2013-01-21 00:13:00,
2013-01-20 18:23:00,2.0,-99.9,-100.00,SSW,210,8.0,11.0,-999,-99.99,,,-99.99,,2013-01-21 00:23:00,
2013-01-20 18:33:00,2.0,-99.9,-100.00,SSW,210,8.0,11.0,-999,-99.99,,,-99.99,,2013-01-21 00:33:00,
2013-01-20 18:40:00,2.0,-99.9,-100.00,SW,219,9.0,13.0,-999,-99.99,,,-99.99,,2013-01-21 00:40:00,
2013-01-20 19:13:00,2.0,-99.9,-100.00,SW,219,9.0,13.0,-999,-99.99,,,-99.99,,2013-01-21 01:13:00,
2013-01-20 19:23:00,2.0,-99.9,-100.00,SW,219,9.0,13.0,-999,-99.99,,,-99.99,,2013-01-21 01:23:00,
2013-01-20 19:33:00,2.0,-99.9,-100.00,SW,219,9.0,13.0,-999,-99.99,,,-99.99,,2013-01-21 01:33:00,
2013-01-20 19:40:00,1.0,-99.9,-100.00,SW,223,7.0,15.0,-999,-99.99,,,-99.99,,2013-01-21 01:40:00,
2013-01-20 20:13:00,1.0,-99.9,-100.00,SW,223,7.0,15.0,-999,-99.99,,,-99.99,,2013-01-21 02:13:00,
2013-01-20 20:23:00,1.0,-99.9,-100.00,SW,223,7.0,15.0,-999,-99.99,,,-99.99,,2013-01-21 02:23:00,
2013-01-20 20:34:00,1.0,-99.9,-100.00,SW,223,7.0,15.0,-999,-99.99,,,-99.99,,2013-01-21 02:34:00,
2013-01-20 21:40:00,-1.0,-99.9,-100.00,SSW,196,7.0,10.0,-999,-99.99,,,-99.99,,2013-01-21 03:40:00,
2013-01-20 22:13:00,-1.0,-99.9,-100.00,SSW,196,7.0,10.0,-999,-99.99,,,-99.99,,2013-01-21 04:13:00,
2013-01-20 22:23:00,-1.0,-99.9,-100.00,SSW,196,7.0,10.0,-999,-99.99,,,-99.99,,2013-01-21 04:23:00,
2013-01-20 22:33:00,-1.0,-99.9,-100.00,SSW,196,7.0,10.0,-999,-99.99,,,-99.99,,2013-01-21 04:33:00,
2013-01-20 22:40:00,-1.0,-99.9,-100.00,SSW,212,8.0,12.0,-999,-99.99,,,-99.99,,2013-01-21 04:40:00,
2013-01-20 23:13:00,-1.0,-99.9,-100.00,SSW,212,8.0,12.0,-999,-99.99,,,-99.99,,2013-01-21 05:13:00,
2013-01-20 23:23:00,-1.0,-99.9,-100.00,SSW,212,8.0,12.0,-999,-99.99,,,-99.99,,2013-01-21 05:23:00,
2013-01-20 23:34:00,-1.0,-99.9,-100.00,SSW,212,8.0,12.0,-999,-99.99,,,-99.99,,2013-01-21 05:34:00,
2013-01-20 23:40:00,-2.0,-99.9,-100.00,SSW,209,9.0,12.0,-999,-99.99,,,-99.99,,2013-01-21 05:40:00,